Relevés horaires Bierset (Belgique)


Relevés horaires à Bierset - Mercredi 05 Oct. 2016
Heure UTC1 Température [°C] Vent [km/h] Hum. [%] Pres.4 [hPa] Visi. [Km] Nébu. [octa] Préc.5 [mm] Cond.
2m. Res. Ros. Dir.2 Vit. Moy. Raf.3
23:00 5.1 5.1 1.6 NE 3.7 5.6 7.4 78 1028.9(-0.6/3h) 40 0/8 -- --
22:00 5.6 4.5 1.3 NE 5.6 7.4 11.1 74 1029.3(-0.3/3h) 40 0/8 -- --
21:00 7.3 6 1.8 ENE 7.4 11.1 16.7 68 1029.2(-0.4/3h) 40 0/8 -- --
20:00 8.1 6.2 1.8 ENE 11.1 11.1 14.8 64 1029.2(-0.3/3h) 40 0/8 -- --
19:00 8.2 6.6 2.0 NE 9.3 11.1 16.7 65 1029.4(-0.3/3h) 45 1/8 -- --
18:00 9.9 8.3 1.5 NE 11.1 14.8 29.6 56 1029.5(-0.4/3h) 45 1/8 0/12h
--
17:00 11.8 10.6 2.3 ENE 11.1 13.0 18.5 52 1029.3(-0.9/3h) 45 1/8 -- --
16:00 12.5 11.5 0.5 E 11.1 13.0 22.2 44 1029.3(-1.2/3h) 40 1/8 -- --
15:00 13.0 12.1 -0.1 E 11.1 14.8 29.6 40 1029.6(-1.6/3h) 35 1/8 -- --
14:00 13.3 12.4 -- E 11.1 13.0 22.2 -- 1030.1(-1.7/3h) 40 1/8 -- --
13:00 12.9 11.9 0.6 E 11.1 14.8 22.2 43 1030.5(-1.4/3h) 35 1/8 -- --
12:00 13.4 12.5 0.5 E 11.1 14.8 24.1 41 1031.3(-0.6/3h) 35 1/8 0/6h
--
11:00 12.3 11 1.7 ENE 13.0 13.0 22.2 48 1031.9(0.0/3h) 35 2/8 -- --
10:00 11.2 9.9 3.4 E 11.1 13.0 20.4 59 1032.1(0.2/3h) 35 2/8 -- --
09:00 9.9 8.3 4.5 E 11.1 11.1 18.5 69 1032.1(-0.2/3h) 30 1/8 -- --
08:00 8.2 6.6 5.0 ENE 9.3 9.3 14.8 80 1032.3(0.5/3h) 35 0/8 -- --
07:00 7.2 5.4 4.8 ENE 9.3 11.1 14.8 85 1032.2(0.5/3h) 35 0/8 -- --
06:00 6.1 4.1 4.4 ENE 9.3 9.3 20.4 89 1032.3(0.5/3h) 35 0/8 0/12h
--
05:00 6.6 5.2 4.5 ENE 7.4 9.3 18.5 86 1031.8(-0.2/3h) 40 0/8 -- --
04:00 6.6 5.7 4.5 ENE 5.6 9.3 14.8 86 1031.8(-0.4/3h) 40 0/8 -- --
03:00 6.9 5.5 4.4 ENE 7.4 9.3 20.4 84 1031.6(-0.5/3h) 50 0/8 -- --
02:00 8.6 7.5 4.6 ENE 7.4 9.3 20.4 76 1031.9(-0.3/3h) 45 0/8 -- --
01:00 8.6 7.1 5.0 ENE 9.3 9.3 13.0 78 1032(-0.4/3h) 45 0/8 -- --
00:00 9.3 8.3 5.3 ENE 7.4 7.4 18.5 76 1032(-0.5/3h) 45 0/8 0/6h
trace/24h
--

1 Coordinated Universal Time. Actuellement il est 00:00 locale et 22:00 UTC.

2 Le vent souffle depuis la direction indiquée vers la direction oposée.

3 Les rafales max. sont disponible 40 min après l'heure du relevé.

4 Pour les stations d'altitude (plus de 600m) le géopotentiel du niveau le plus proche de la pression obligatoire est indiqué.

5 Les stations disposant d'un diffuseur peuvent indiquer "trace". Cela signifie que des précipitations ont touchés le sol mais que la quantité est inférieure à 0.1 mm.

Récapitulatif de la journée
Température [°C] Vent [km/h] Ensoleillement4 [h] Precipitations totale5 [mm] Pression [Hpa]
Min1 Max.2 Moy.3 Max. Min Max.
5.9 13.8 11.1 29.6 0 h 0 min 0 1028.9 1032.3

1 Température minimale relevée entre 18:00 UTC la veille et 18:00 UTC le jour donné.

2 Température maximale relevée entre 06:00 UTC le jour donné et 06:00 UTC le lendemain.

3 Vent moyen de la journée basé sur les relevés horaires.

4 Ensoleillement en heures relevé entre 06:00 UTC la veille et 06:00 UTC le jour donné.

5 Précipitations totales tombées entre 06:00 UTC la jour donné et 06:00 UTC le lendemain.

Graphiques horaires